createdAt,value
2022-12-11T00:00:08.846Z,84.73
2022-12-11T00:02:35.573Z,85.68
2022-12-11T00:05:02.194Z,86.37
2022-12-11T00:07:29.261Z,85.29
2022-12-11T00:09:55.868Z,84.33
2022-12-11T00:12:22.620Z,82.71
2022-12-11T00:14:49.253Z,83.24
2022-12-11T00:17:15.823Z,82.99
2022-12-11T00:19:42.341Z,83.89
2022-12-11T00:22:08.858Z,83.46
2022-12-11T00:24:35.428Z,82.26
2022-12-11T00:27:02.067Z,81.66
2022-12-11T00:29:28.604Z,81.92
2022-12-11T00:31:55.271Z,82.84
2022-12-11T00:34:22.033Z,83.23
2022-12-11T00:36:48.549Z,81.59
2022-12-11T00:39:15.183Z,80.94
2022-12-11T00:41:41.742Z,82.53
2022-12-11T00:44:08.394Z,81.52
2022-12-11T00:46:34.995Z,83.20
2022-12-11T00:49:01.552Z,81.74
2022-12-11T00:51:28.205Z,83.17
2022-12-11T00:53:54.722Z,83.80
2022-12-11T00:56:22.378Z,82.80
2022-12-11T00:58:49.661Z,81.75
2022-12-11T01:01:19.991Z,82.55
2022-12-11T01:03:47.154Z,81.85
2022-12-11T01:06:21.198Z,83.08
2022-12-11T01:08:48.645Z,82.74
2022-12-11T01:11:17.265Z,83.16
2022-12-11T01:13:44.261Z,82.56
2022-12-11T01:16:13.825Z,82.08
2022-12-11T01:18:40.783Z,82.77
2022-12-11T01:21:12.892Z,81.17
2022-12-11T01:23:40.360Z,81.44
2022-12-11T01:26:09.309Z,81.45
2022-12-11T01:28:36.201Z,83.11
2022-12-11T01:31:02.929Z,82.92
2022-12-11T01:33:29.652Z,82.60
2022-12-11T01:35:56.303Z,82.69
2022-12-11T01:38:22.897Z,82.36
2022-12-11T01:40:51.512Z,81.48
2022-12-11T01:43:18.783Z,82.74
2022-12-11T01:45:48.397Z,81.86
2022-12-11T01:48:21.874Z,83.59
2022-12-11T01:50:53.551Z,84.26
2022-12-11T01:53:25.207Z,82.34
2022-12-11T01:55:55.201Z,83.80
2022-12-11T01:58:24.914Z,79.88
2022-12-11T02:00:52.761Z,82.35
2022-12-11T02:03:20.034Z,82.95
2022-12-11T02:05:46.612Z,81.83
2022-12-11T02:08:13.363Z,82.43
2022-12-11T02:11:10.495Z,82.17
2022-12-11T02:14:02.458Z,80.13
2022-12-11T02:16:38.714Z,79.70
2022-12-11T02:19:13.051Z,80.94
2022-12-11T02:21:43.613Z,81.09
2022-12-11T02:24:32.480Z,82.10
2022-12-11T02:27:01.644Z,81.15
2022-12-11T02:29:52.944Z,80.98
2022-12-11T02:32:53.568Z,81.24
2022-12-11T02:35:30.698Z,82.28
2022-12-11T02:38:05.645Z,81.67
2022-12-11T02:40:37.036Z,81.57
2022-12-11T02:43:07.867Z,82.66
2022-12-11T02:45:35.615Z,81.34
2022-12-11T02:48:06.002Z,82.47
2022-12-11T02:50:36.149Z,80.52
2022-12-11T02:53:04.827Z,80.88
2022-12-11T02:55:33.693Z,81.29
2022-12-11T02:58:05.708Z,81.93
2022-12-11T03:00:32.435Z,81.53
2022-12-11T03:02:59.226Z,80.15
2022-12-11T03:05:27.257Z,79.92
2022-12-11T03:07:54.148Z,81.26
2022-12-11T03:10:21.034Z,80.38
2022-12-11T03:12:53.811Z,79.24
2022-12-11T03:15:24.032Z,79.44
2022-12-11T03:18:15.626Z,80.85
2022-12-11T03:20:51.122Z,81.40
2022-12-11T03:23:32.725Z,80.21
2022-12-11T03:26:20.106Z,80.77
2022-12-11T03:28:58.471Z,81.11
2022-12-11T03:31:41.454Z,79.81
2022-12-11T03:34:19.826Z,81.39
2022-12-11T03:36:50.092Z,80.87
2022-12-11T03:39:26.805Z,78.97
2022-12-11T03:41:55.866Z,80.63
2022-12-11T03:44:24.051Z,79.82
2022-12-11T03:46:53.907Z,80.03
2022-12-11T03:49:26.611Z,80.31
2022-12-11T03:51:56.907Z,79.65
2022-12-11T03:54:24.895Z,80.00
2022-12-11T03:56:55.926Z,80.21
2022-12-11T03:59:22.514Z,81.20
2022-12-11T04:01:49.158Z,81.18
2022-12-11T04:04:15.774Z,80.68
2022-12-11T04:06:42.516Z,80.18
2022-12-11T04:09:09.114Z,80.97
2022-12-11T04:11:35.694Z,79.88
2022-12-11T04:14:30.337Z,79.25
2022-12-11T04:16:58.822Z,79.61
2022-12-11T04:19:44.866Z,82.23
2022-12-11T04:22:31.480Z,81.02
2022-12-11T04:24:58.144Z,79.32
2022-12-11T04:27:44.062Z,79.01
2022-12-11T04:30:15.316Z,78.20
2022-12-11T04:32:41.961Z,79.54
2022-12-11T04:35:10.442Z,78.23
2022-12-11T04:37:37.505Z,78.51
2022-12-11T04:40:06.604Z,79.39
2022-12-11T04:42:33.904Z,78.52
2022-12-11T04:45:00.449Z,79.08
2022-12-11T04:47:27.645Z,78.40
2022-12-11T04:49:54.354Z,78.89
2022-12-11T04:52:20.874Z,78.88
2022-12-11T04:54:47.861Z,78.83
2022-12-11T04:57:14.563Z,79.14
2022-12-11T04:59:41.067Z,79.18
2022-12-11T05:02:07.827Z,80.56
2022-12-11T05:04:35.597Z,77.94
2022-12-11T05:07:02.200Z,80.14
2022-12-11T05:09:28.750Z,80.26
2022-12-11T05:11:55.857Z,79.82
2022-12-11T05:14:22.426Z,79.20
2022-12-11T05:16:49.173Z,80.93
2022-12-11T05:19:16.914Z,80.73
2022-12-11T05:21:43.505Z,81.01
2022-12-11T05:24:10.163Z,80.16
2022-12-11T05:26:36.923Z,80.67
2022-12-11T05:29:03.678Z,78.29
2022-12-11T05:31:30.326Z,79.07
2022-12-11T05:33:56.986Z,79.17
2022-12-11T05:36:25.977Z,76.16
2022-12-11T05:38:53.240Z,77.57
2022-12-11T05:41:24.552Z,79.61
2022-12-11T05:43:51.603Z,79.20
2022-12-11T05:46:20.816Z,79.46
2022-12-11T05:48:50.931Z,79.41
2022-12-11T05:51:18.396Z,79.86
2022-12-11T05:53:46.774Z,81.26
2022-12-11T05:56:17.130Z,82.08
2022-12-11T05:58:45.080Z,79.35
2022-12-11T06:01:17.921Z,80.09
2022-12-11T06:03:44.773Z,79.69
2022-12-11T06:06:11.407Z,80.75
2022-12-11T06:08:38.456Z,80.38
2022-12-11T06:11:05.837Z,79.49
2022-12-11T06:13:32.500Z,77.67
2022-12-11T06:16:04.172Z,78.54
2022-12-11T06:18:31.172Z,79.45
2022-12-11T06:20:58.073Z,81.43
2022-12-11T06:23:24.889Z,79.30
2022-12-11T06:25:51.401Z,78.72
2022-12-11T06:28:17.934Z,78.92
2022-12-11T06:30:45.216Z,77.80
2022-12-11T06:33:11.795Z,79.19
2022-12-11T06:35:41.980Z,79.28
2022-12-11T06:38:10.888Z,79.94
2022-12-11T06:40:38.243Z,79.43
2022-12-11T06:43:05.081Z,79.84
2022-12-11T06:45:31.853Z,78.77
2022-12-11T06:47:59.253Z,79.63
2022-12-11T06:50:26.501Z,79.25
2022-12-11T06:52:53.252Z,78.08
2022-12-11T06:55:19.798Z,78.59
2022-12-11T06:57:46.377Z,78.39
2022-12-11T07:00:13.962Z,77.93
2022-12-11T07:02:40.713Z,78.01
2022-12-11T07:05:07.793Z,79.01
2022-12-11T07:07:34.894Z,79.36
2022-12-11T07:10:07.699Z,77.62
2022-12-11T07:12:35.197Z,78.30
2022-12-11T07:15:01.772Z,77.36
2022-12-11T07:17:29.941Z,77.58
2022-12-11T07:19:56.911Z,78.36
2022-12-11T07:22:23.508Z,79.16
2022-12-11T07:24:50.312Z,79.41
2022-12-11T07:27:16.963Z,79.31
2022-12-11T07:29:43.578Z,78.84
2022-12-11T07:32:10.686Z,78.50
2022-12-11T07:34:37.589Z,80.37
2022-12-11T07:37:04.390Z,79.52
2022-12-11T07:39:30.941Z,79.39
2022-12-11T07:41:57.534Z,76.96
2022-12-11T07:44:24.136Z,77.33
2022-12-11T07:46:50.673Z,76.84
2022-12-11T07:49:17.277Z,76.48
2022-12-11T07:51:43.946Z,77.94
2022-12-11T07:54:16.697Z,78.00
2022-12-11T07:56:47.417Z,76.94
2022-12-11T07:59:16.986Z,78.15
2022-12-11T08:01:43.832Z,77.77
2022-12-11T08:04:12.038Z,77.32
2022-12-11T08:06:40.099Z,75.68
2022-12-11T08:09:11.922Z,76.38
2022-12-11T08:11:40.281Z,75.83
2022-12-11T08:14:08.708Z,75.70
2022-12-11T08:16:35.398Z,74.46
2022-12-11T08:19:02.014Z,72.97
2022-12-11T08:21:29.463Z,71.71
2022-12-11T08:23:56.529Z,71.00
2022-12-11T08:26:28.993Z,72.46
2022-12-11T08:28:56.496Z,72.43
2022-12-11T08:31:23.765Z,72.78
2022-12-11T08:33:51.781Z,72.67
2022-12-11T08:36:23.102Z,71.85
2022-12-11T08:38:50.827Z,71.87
2022-12-11T08:41:21.792Z,70.58
2022-12-11T08:43:48.494Z,69.82
2022-12-11T08:46:16.007Z,72.73
2022-12-11T08:48:43.561Z,72.15
2022-12-11T08:51:16.408Z,71.10
2022-12-11T08:53:43.168Z,71.08
2022-12-11T08:56:15.379Z,72.79
2022-12-11T08:58:42.786Z,72.07
2022-12-11T09:01:12.314Z,70.65
2022-12-11T09:03:39.983Z,71.95
2022-12-11T09:06:08.872Z,72.34
2022-12-11T09:08:35.612Z,72.83
2022-12-11T09:11:12.221Z,73.22
2022-12-11T09:13:39.852Z,77.97
2022-12-11T09:16:15.958Z,77.00
2022-12-11T09:18:44.941Z,76.12
2022-12-11T09:21:14.240Z,80.81
2022-12-11T09:23:41.160Z,81.11
2022-12-11T09:26:11.148Z,81.44
2022-12-11T09:28:44.333Z,81.93
2022-12-11T09:31:17.824Z,82.41
2022-12-11T09:33:45.461Z,82.41
2022-12-11T09:36:12.537Z,82.37
2022-12-11T09:38:39.475Z,82.60
2022-12-11T09:41:21.550Z,81.54
2022-12-11T09:44:06.668Z,81.24
2022-12-11T09:46:35.052Z,81.03
2022-12-11T09:49:03.570Z,81.73
2022-12-11T09:51:30.302Z,80.61
2022-12-11T09:54:01.872Z,80.45
2022-12-11T09:56:33.745Z,80.19
2022-12-11T09:59:18.580Z,80.25
2022-12-11T10:02:34.736Z,80.63
2022-12-11T10:05:19.978Z,79.06
2022-12-11T10:08:05.366Z,79.06
2022-12-11T10:10:41.023Z,78.32
2022-12-11T10:13:38.347Z,78.21
2022-12-11T10:16:14.192Z,78.84
2022-12-11T10:18:41.568Z,78.52
2022-12-11T10:21:09.503Z,78.82
2022-12-11T10:23:58.780Z,78.46
2022-12-11T10:26:25.596Z,78.23
2022-12-11T10:28:52.188Z,78.14
2022-12-11T10:31:39.501Z,78.22
2022-12-11T10:34:15.017Z,78.15
2022-12-11T10:36:43.584Z,77.79
2022-12-11T10:39:19.668Z,78.51
2022-12-11T10:41:48.179Z,78.31
2022-12-11T10:44:32.969Z,78.25
2022-12-11T10:47:11.953Z,77.98
2022-12-11T10:49:43.343Z,78.20
2022-12-11T10:52:21.356Z,77.15
2022-12-11T10:55:14.734Z,76.25
2022-12-11T10:57:42.010Z,77.66
2022-12-11T11:00:26.680Z,77.65
2022-12-11T11:02:53.714Z,77.22
2022-12-11T11:05:36.406Z,75.72
2022-12-11T11:08:19.518Z,76.30
2022-12-11T11:10:58.994Z,75.86
2022-12-11T11:13:31.356Z,74.61
2022-12-11T11:16:06.871Z,75.30
2022-12-11T11:18:34.785Z,75.17
2022-12-11T11:21:02.437Z,75.13
2022-12-11T11:23:29.713Z,76.25
2022-12-11T11:25:59.577Z,76.45
2022-12-11T11:28:29.936Z,76.25
2022-12-11T11:31:04.943Z,76.06
2022-12-11T11:33:34.277Z,76.58
2022-12-11T11:36:07.393Z,77.11
2022-12-11T11:38:36.494Z,76.79
2022-12-11T11:41:55.341Z,76.75
2022-12-11T11:44:34.796Z,77.40
2022-12-11T11:47:11.336Z,77.52
2022-12-11T11:50:03.639Z,76.46
2022-12-11T11:53:01.772Z,75.41
2022-12-11T11:55:53.537Z,75.21
2022-12-11T11:58:25.325Z,75.13
2022-12-11T12:00:54.987Z,76.02
2022-12-11T12:03:24.186Z,75.89
2022-12-11T12:06:13.541Z,75.70
2022-12-11T12:08:52.054Z,75.26
2022-12-11T12:11:45.929Z,74.53
2022-12-11T12:17:39.626Z,75.25
2022-12-11T12:20:12.198Z,75.10
2022-12-11T12:22:51.808Z,75.56
2022-12-11T12:25:47.480Z,75.31
2022-12-11T12:28:34.129Z,75.36
2022-12-11T12:31:35.802Z,76.27
2022-12-11T12:34:24.162Z,76.16
2022-12-11T12:37:10.604Z,74.94
2022-12-11T12:39:43.060Z,75.37
2022-12-11T12:42:24.573Z,74.89
2022-12-11T12:44:59.644Z,76.28
2022-12-11T12:47:31.339Z,75.94
2022-12-11T12:50:01.321Z,76.41
2022-12-11T12:52:37.789Z,76.45
2022-12-11T12:55:32.037Z,77.06
2022-12-11T12:58:03.048Z,76.90
2022-12-11T13:00:44.139Z,76.80
2022-12-11T13:03:22.717Z,75.70
2022-12-11T13:06:15.740Z,76.98
2022-12-11T13:08:47.332Z,77.89
2022-12-11T13:11:17.767Z,78.32
2022-12-11T13:14:02.043Z,78.66
2022-12-11T13:16:40.796Z,78.07
2022-12-11T13:19:35.436Z,78.24
2022-12-11T13:22:15.022Z,78.31
2022-12-11T13:24:57.311Z,79.14
2022-12-11T13:27:27.678Z,78.65
2022-12-11T13:30:14.447Z,79.40
2022-12-11T13:32:43.657Z,79.87
2022-12-11T13:35:17.466Z,79.43
2022-12-11T13:37:46.674Z,78.82
2022-12-11T13:40:24.583Z,78.71
2022-12-11T13:43:04.459Z,78.57
2022-12-11T13:45:43.233Z,78.73
2022-12-11T13:48:22.138Z,79.54
2022-12-11T13:50:50.848Z,79.73
2022-12-11T13:53:18.960Z,80.01
2022-12-11T13:55:46.372Z,79.17
2022-12-11T13:58:20.949Z,79.10
2022-12-11T14:01:11.125Z,79.84
2022-12-11T14:03:46.985Z,80.67
2022-12-11T14:06:18.471Z,79.98
2022-12-11T14:08:49.483Z,80.30
2022-12-11T14:11:23.789Z,80.13
2022-12-11T14:13:50.649Z,79.65
2022-12-11T14:16:22.935Z,79.90
2022-12-11T14:18:54.941Z,80.73
2022-12-11T14:21:24.341Z,80.88
2022-12-11T14:23:59.946Z,80.97
2022-12-11T14:26:29.499Z,81.72
2022-12-11T14:28:56.427Z,82.16
2022-12-11T14:31:37.595Z,81.72
2022-12-11T14:34:14.283Z,81.97
2022-12-11T14:36:42.081Z,82.34
2022-12-11T14:39:17.028Z,83.01
2022-12-11T14:41:51.528Z,82.80
2022-12-11T14:44:21.098Z,83.42
2022-12-11T14:47:10.551Z,83.20
2022-12-11T14:49:47.388Z,82.61
2022-12-11T14:52:19.146Z,82.91
2022-12-11T14:55:01.413Z,84.24
2022-12-11T14:57:31.264Z,83.55
2022-12-11T14:59:58.113Z,83.26
2022-12-11T15:02:30.116Z,83.01
2022-12-11T15:05:12.778Z,83.86
2022-12-11T15:07:42.413Z,83.84
2022-12-11T15:10:22.228Z,84.03
2022-12-11T15:12:48.973Z,83.60
2022-12-11T15:15:17.832Z,83.59
2022-12-11T15:17:51.142Z,83.47
2022-12-11T15:20:26.164Z,82.56
2022-12-11T15:22:53.488Z,82.87
2022-12-11T15:25:28.318Z,78.50
2022-12-11T15:27:57.758Z,78.39
2022-12-11T15:30:29.074Z,78.93
2022-12-11T15:33:04.895Z,77.22
2022-12-11T15:35:31.504Z,78.35
2022-12-11T15:37:59.180Z,78.53
2022-12-11T15:40:26.958Z,78.66
2022-12-11T15:42:55.024Z,79.18
2022-12-11T15:45:24.694Z,77.29
2022-12-11T15:47:52.093Z,77.39
2022-12-11T15:50:24.471Z,76.10
2022-12-11T15:52:53.196Z,78.60
2022-12-11T15:55:21.025Z,77.46
2022-12-11T15:57:54.512Z,80.44
2022-12-11T16:00:22.229Z,81.16
2022-12-11T16:02:48.807Z,80.91
2022-12-11T16:05:15.691Z,80.98
2022-12-11T16:07:42.278Z,81.02
2022-12-11T16:10:15.773Z,80.45
2022-12-11T16:12:43.443Z,81.54
2022-12-11T16:15:13.728Z,82.04
2022-12-11T16:17:42.556Z,81.99
2022-12-11T16:20:10.685Z,79.78
2022-12-11T16:22:37.737Z,79.30
2022-12-11T16:25:04.746Z,80.43
2022-12-11T16:27:31.439Z,81.24
2022-12-11T16:29:58.112Z,80.20
2022-12-11T16:32:24.703Z,81.02
2022-12-11T16:34:51.316Z,80.94
2022-12-11T16:37:17.957Z,80.58
2022-12-11T16:39:46.170Z,81.72
2022-12-11T16:42:12.767Z,82.58
2022-12-11T16:44:43.890Z,81.64
2022-12-11T16:47:10.871Z,82.52
2022-12-11T16:49:37.419Z,82.43
2022-12-11T16:52:04.082Z,82.65
2022-12-11T16:54:30.884Z,82.96
2022-12-11T16:56:57.403Z,81.89
2022-12-11T16:59:24.025Z,82.94
2022-12-11T17:01:50.786Z,83.03
2022-12-11T17:04:17.449Z,82.90
2022-12-11T17:06:44.052Z,83.28
2022-12-11T17:09:11.651Z,82.99
2022-12-11T17:11:38.213Z,82.27
2022-12-11T17:14:04.784Z,82.39
2022-12-11T17:16:32.415Z,80.88
2022-12-11T17:18:59.127Z,81.59
2022-12-11T17:21:25.854Z,81.38
2022-12-11T17:23:52.626Z,81.56
2022-12-11T17:26:20.241Z,80.12
2022-12-11T17:28:47.050Z,81.23
2022-12-11T17:31:17.263Z,80.05
2022-12-11T17:33:45.620Z,79.98
2022-12-11T17:36:18.431Z,80.67
2022-12-11T17:38:45.501Z,79.97
2022-12-11T17:41:20.047Z,78.66
2022-12-11T17:43:51.435Z,79.75
2022-12-11T17:46:18.999Z,78.91
2022-12-11T17:48:45.708Z,77.20
2022-12-11T17:51:14.719Z,78.86
2022-12-11T17:53:41.248Z,77.81
2022-12-11T17:56:08.416Z,78.26
2022-12-11T17:58:35.468Z,79.65
2022-12-11T18:01:07.634Z,77.09
2022-12-11T18:03:35.046Z,77.30
2022-12-11T18:06:06.086Z,78.11
2022-12-11T18:08:32.727Z,78.66
2022-12-11T18:11:25.695Z,78.59
2022-12-11T18:13:53.404Z,78.85
2022-12-11T18:16:28.383Z,79.05
2022-12-11T18:18:56.532Z,78.23
2022-12-11T18:21:35.125Z,79.42
2022-12-11T18:24:02.684Z,78.15
2022-12-11T18:26:29.228Z,77.41
2022-12-11T18:28:55.802Z,76.97
2022-12-11T18:31:23.034Z,76.69
2022-12-11T18:33:50.076Z,76.83
2022-12-11T18:36:18.381Z,76.57
2022-12-11T18:38:45.052Z,77.33
2022-12-11T18:41:13.425Z,77.38
2022-12-11T18:43:40.906Z,79.24
2022-12-11T18:46:14.095Z,77.81
2022-12-11T18:48:42.458Z,79.56
2022-12-11T18:51:12.173Z,80.60
2022-12-11T18:53:39.748Z,81.25
2022-12-11T18:56:15.078Z,81.82
2022-12-11T18:58:42.195Z,80.13
2022-12-11T19:01:11.308Z,81.97
2022-12-11T19:03:38.148Z,80.52
2022-12-11T19:06:13.466Z,81.23
2022-12-11T19:08:40.577Z,80.96
2022-12-11T19:11:07.348Z,80.15
2022-12-11T19:13:34.973Z,79.91
2022-12-11T19:16:02.082Z,78.61
2022-12-11T19:18:28.763Z,78.49
2022-12-11T19:21:06.451Z,79.89
2022-12-11T19:23:35.471Z,82.06
2022-12-11T19:26:02.438Z,81.55
2022-12-11T19:28:29.262Z,81.36
2022-12-11T19:30:56.168Z,81.41
2022-12-11T19:33:22.800Z,82.67
2022-12-11T19:35:49.325Z,82.53
2022-12-11T19:38:16.245Z,82.73
2022-12-11T19:40:44.363Z,83.35
2022-12-11T19:43:11.203Z,83.49
2022-12-11T19:45:38.175Z,83.52
2022-12-11T19:48:05.077Z,85.41
2022-12-11T19:50:31.733Z,85.00
2022-12-11T19:52:58.388Z,84.51
2022-12-11T19:55:24.949Z,84.45
2022-12-11T19:57:51.518Z,84.52
2022-12-11T20:00:19.050Z,85.39
2022-12-11T20:02:45.641Z,86.25
2022-12-11T20:05:13.182Z,86.24
2022-12-11T20:07:40.308Z,86.25
2022-12-11T20:10:07.662Z,86.47
2022-12-11T20:12:34.290Z,86.12
2022-12-11T20:15:00.932Z,85.94
2022-12-11T20:17:27.485Z,85.92
2022-12-11T20:19:54.094Z,86.26
2022-12-11T20:22:20.639Z,86.69
2022-12-11T20:24:47.218Z,86.07
2022-12-11T20:27:13.825Z,85.61
2022-12-11T20:29:40.801Z,85.80
2022-12-11T20:32:07.554Z,85.48
2022-12-11T20:34:34.329Z,85.61
2022-12-11T20:37:00.961Z,85.62
2022-12-11T20:39:27.556Z,84.91
2022-12-11T20:41:54.240Z,85.46
2022-12-11T20:44:20.839Z,85.68
2022-12-11T20:46:47.492Z,86.04
2022-12-11T20:49:14.115Z,85.53
2022-12-11T20:51:41.089Z,85.64
2022-12-11T20:54:07.936Z,85.95
2022-12-11T20:56:34.639Z,85.89
2022-12-11T20:59:01.314Z,85.86
2022-12-11T21:01:30.951Z,85.95
2022-12-11T21:03:58.939Z,86.15
2022-12-11T21:06:32.083Z,86.30
2022-12-11T21:09:00.997Z,86.15
2022-12-11T21:11:27.875Z,85.59
2022-12-11T21:13:54.733Z,85.55
2022-12-11T21:16:21.601Z,85.72
2022-12-11T21:18:48.598Z,85.31
2022-12-11T21:21:16.548Z,85.91
2022-12-11T21:23:43.519Z,86.45
2022-12-11T21:26:10.962Z,86.61
2022-12-11T21:28:37.859Z,86.61
2022-12-11T21:31:07.483Z,86.24
2022-12-11T21:33:34.908Z,85.35
2022-12-11T21:36:02.106Z,84.83
2022-12-11T21:38:29.520Z,84.61
2022-12-11T21:40:56.632Z,84.45
2022-12-11T21:43:24.884Z,82.57
2022-12-11T21:46:01.041Z,83.29
2022-12-11T21:48:29.052Z,82.53
2022-12-11T21:50:56.083Z,83.71
2022-12-11T21:53:22.648Z,82.63
2022-12-11T21:55:49.371Z,83.06
2022-12-11T21:58:15.886Z,81.63
2022-12-11T22:00:42.488Z,82.06
2022-12-11T22:03:09.194Z,82.10
2022-12-11T22:05:35.740Z,83.06
2022-12-11T22:08:03.182Z,84.53
2022-12-11T22:10:29.856Z,84.02
2022-12-11T22:12:56.446Z,83.35
2022-12-11T22:15:23.233Z,82.75
2022-12-11T22:17:50.307Z,82.79
2022-12-11T22:20:16.998Z,83.34
2022-12-11T22:22:43.542Z,83.25
2022-12-11T22:25:10.531Z,82.31
2022-12-11T22:27:37.323Z,83.60
2022-12-11T22:30:04.662Z,82.77
2022-12-11T22:32:31.352Z,83.01
2022-12-11T22:34:57.997Z,82.72
2022-12-11T22:37:25.048Z,83.44
2022-12-11T22:39:51.693Z,84.46
2022-12-11T22:42:18.348Z,84.58
2022-12-11T22:44:45.061Z,83.85
2022-12-11T22:47:12.160Z,83.38
2022-12-11T22:49:38.689Z,83.19
2022-12-11T22:52:05.316Z,81.86
2022-12-11T22:54:32.233Z,81.46
2022-12-11T22:56:58.792Z,82.74
2022-12-11T22:59:25.380Z,81.56
2022-12-11T23:01:51.921Z,81.32
2022-12-11T23:04:18.515Z,82.15
2022-12-11T23:06:45.115Z,81.99
2022-12-11T23:09:12.313Z,80.88
2022-12-11T23:11:40.187Z,81.25
2022-12-11T23:14:09.185Z,82.41
2022-12-11T23:16:35.926Z,81.74
2022-12-11T23:19:02.677Z,82.56
2022-12-11T23:21:29.710Z,82.79
2022-12-11T23:23:57.067Z,83.18
2022-12-11T23:26:24.367Z,81.85
2022-12-11T23:28:50.974Z,82.72
2022-12-11T23:31:18.320Z,83.93
2022-12-11T23:33:45.139Z,81.82
2022-12-11T23:36:12.888Z,81.03
2022-12-11T23:38:40.726Z,81.48
2022-12-11T23:41:08.860Z,82.65
2022-12-11T23:43:36.813Z,81.35
2022-12-11T23:46:22.056Z,82.64
2022-12-11T23:48:49.691Z,82.32
2022-12-11T23:51:19.068Z,81.83
2022-12-11T23:53:46.422Z,81.60
2022-12-11T23:56:16.646Z,82.24
2022-12-11T23:58:43.348Z,81.22
